TAF and METAR

Decoding for American and Canadian METARs and TAFs is not fully implemented.

Could not understand the following METAR

PACZ 230311Z AUTO 18032G42KT 2 1/2SM -SN BR OVC019 00/M01 A2983 RMK AO2 SLP111 $
No TAF available for Cape Romanzof Long Range Radar Station
Cape Romanzof Long Range Radar Station in United States of America at 146m

Latest 5 airports